Time;durP1;ratioP1;P1;durP2;ratioP2;P2;SDS_P1;SDS_P2;PMS_P1;PMS_P2;Temp;Humidity;BMP_temperature;BMP_pressure;BME280_temperature;BME280_humidity;BME280_pressure;Samples;Min_cycle;Max_cycle;Signal;HPM_P1;HPM_P2
2021/10/21 00:00:36;;;;;;;7.93;7.13;;;;;;;15.68;66.34;101713.88;5010573;28;102877;-83
2021/10/21 00:03:03;;;;;;;9.57;7.38;;;;;;;15.67;66.20;101713.06;5010877;28;102715;-85
2021/10/21 00:05:30;;;;;;;9.05;7.55;;;;;;;15.67;66.32;101713.06;5014607;28;102134;-83
2021/10/21 00:07:57;;;;;;;7.93;7.07;;;;;;;15.67;66.12;101713.06;5007670;27;102908;-83
2021/10/21 00:10:25;;;;;;;7.97;7.18;;;;;;;15.67;66.32;101707.56;5007953;28;102171;-83
2021/10/21 00:12:51;;;;;;;7.97;7.13;;;;;;;15.67;66.41;101712.25;5011025;27;102349;-83
2021/10/21 00:15:18;;;;;;;8.13;6.82;;;;;;;15.67;66.01;101709.50;5010164;28;102407;-83
2021/10/21 00:17:45;;;;;;;9.27;7.22;;;;;;;15.67;66.31;101707.56;5013786;28;103874;-84
2021/10/21 00:20:12;;;;;;;8.20;7.18;;;;;;;15.67;66.03;101706.75;5011677;28;102087;-84
2021/10/21 00:22:39;;;;;;;7.60;6.80;;;;;;;15.68;66.07;101708.38;5010412;28;102544;-84
2021/10/21 00:25:07;;;;;;;8.45;6.85;;;;;;;15.67;66.03;101702.06;5014158;28;102154;-84
2021/10/21 00:27:35;;;;;;;9.30;7.13;;;;;;;15.67;66.36;101693.03;5009888;28;102851;-84
2021/10/21 00:30:01;;;;;;;8.55;6.78;;;;;;;15.67;66.47;101702.06;5012711;28;102153;-84
2021/10/21 00:32:28;;;;;;;7.53;6.80;;;;;;;15.67;65.99;101684.78;5008414;28;102154;-83
2021/10/21 00:34:56;;;;;;;7.85;6.90;;;;;;;15.67;66.29;101690.28;5013170;28;102125;-82
2021/10/21 00:37:22;;;;;;;7.47;6.78;;;;;;;15.67;66.35;101690.28;5012011;28;103947;-82
2021/10/21 00:39:48;;;;;;;7.63;6.40;;;;;;;15.68;66.25;101680.94;5018149;28;102947;-84
2021/10/21 00:42:15;;;;;;;7.57;6.63;;;;;;;15.67;66.41;101679.31;5016446;28;102309;-82
2021/10/21 00:44:43;;;;;;;7.05;6.28;;;;;;;15.67;66.28;101671.91;5008172;28;102303;-82
2021/10/21 00:47:11;;;;;;;7.40;6.43;;;;;;;15.67;66.58;101657.34;5020340;28;105291;-82
2021/10/21 00:49:37;;;;;;;7.55;6.85;;;;;;;15.67;66.30;101666.41;5017161;28;102383;-83
2021/10/21 00:52:04;;;;;;;6.82;5.80;;;;;;;15.67;66.24;101660.09;5019644;28;102508;-82
2021/10/21 00:54:31;;;;;;;7.10;6.40;;;;;;;15.68;66.05;101664.47;5021942;28;102209;-82
2021/10/21 00:56:58;;;;;;;6.88;6.18;;;;;;;15.66;66.05;101661.22;5013464;28;103066;-83
2021/10/21 00:59:28;;;;;;;7.22;6.43;;;;;;;15.67;66.04;101662.84;5015508;28;102267;-83
2021/10/21 01:01:56;;;;;;;7.03;6.20;;;;;;;15.68;66.44;101653.50;5020110;28;102130;-84
2021/10/21 01:04:24;;;;;;;;;;;;;;;15.66;66.18;101645.56;5017090;28;102621;-85
2021/10/21 01:06:50;;;;;;;7.00;6.25;;;;;;;15.67;66.18;101649.94;5015482;28;103927;-85
2021/10/21 01:09:18;;;;;;;7.15;6.00;;;;;;;15.68;66.08;101645.28;5015654;28;102871;-85
2021/10/21 01:11:45;;;;;;;6.30;5.70;;;;;;;15.68;66.44;101637.03;5009714;28;102553;-85
2021/10/21 01:14:11;;;;;;;7.10;6.30;;;;;;;15.67;66.33;101632.66;5006959;28;102151;-84
2021/10/21 01:16:41;;;;;;;7.75;6.30;;;;;;;15.67;66.53;101629.91;5011234;28;102498;-85
2021/10/21 01:19:17;;;;;;;6.88;6.07;;;;;;;15.67;66.52;101627.16;5012434;28;102497;-85
2021/10/21 01:21:48;;;;;;;7.45;6.40;;;;;;;15.68;66.33;101628.81;5012809;28;102736;-85
2021/10/21 01:24:15;;;;;;;6.97;6.20;;;;;;;15.67;66.55;101629.91;5010665;28;103973;-85
2021/10/21 01:26:43;;;;;;;7.57;6.18;;;;;;;15.68;66.51;101637.03;5013062;28;104029;-85
2021/10/21 01:29:10;;;;;;;6.85;6.15;;;;;;;15.67;66.48;101629.91;5014579;28;102601;-85
2021/10/21 01:31:38;;;;;;;6.85;6.15;;;;;;;15.67;66.19;101630.72;5009620;28;102360;-85
2021/10/21 01:34:06;;;;;;;8.43;5.88;;;;;;;15.67;66.08;101629.91;5015045;28;102398;-86
2021/10/21 01:36:34;;;;;;;6.60;5.90;;;;;;;15.67;65.97;101629.91;5014670;28;102794;-86
2021/10/21 01:39:02;;;;;;;6.72;6.10;;;;;;;15.67;66.50;101630.72;5017467;28;102263;-87
2021/10/21 01:41:30;;;;;;;6.57;5.97;;;;;;;15.68;66.43;101626.06;5028378;27;102563;-87
2021/10/21 01:43:57;;;;;;;6.55;5.65;;;;;;;15.67;65.94;101629.91;5007188;28;102541;-88
2021/10/21 01:46:23;;;;;;;6.93;6.20;;;;;;;15.67;66.43;101627.16;4985761;28;102835;-88
2021/10/21 01:48:50;;;;;;;7.38;5.95;;;;;;;15.68;66.53;101631.56;4990571;28;102240;-87
2021/10/21 01:51:17;;;;;;;7.25;5.78;;;;;;;15.68;66.24;101631.56;5015187;28;102206;-88
2021/10/21 01:53:44;;;;;;;7.22;5.07;;;;;;;15.66;66.38;101626.34;5014883;28;102850;-88
2021/10/21 01:56:12;;;;;;;6.22;5.63;;;;;;;15.67;66.36;101629.91;5010130;28;103471;-87
2021/10/21 01:58:38;;;;;;;7.55;5.68;;;;;;;15.67;66.14;101632.66;5001061;28;102169;-88
2021/10/21 02:01:05;;;;;;;6.55;5.95;;;;;;;15.68;66.23;101631.56;5013924;28;102573;-87
2021/10/21 02:03:32;;;;;;;7.20;6.00;;;;;;;15.67;66.40;101629.91;5009370;28;102557;-85
2021/10/21 02:05:59;;;;;;;6.93;6.22;;;;;;;15.68;66.40;101631.56;5027060;28;103863;-84
2021/10/21 02:08:26;;;;;;;5.72;5.20;;;;;;;15.67;66.51;101640.88;5006898;28;102376;-84
2021/10/21 02:10:53;;;;;;;8.65;5.85;;;;;;;15.67;66.51;101643.63;5011581;28;102466;-84
2021/10/21 02:13:21;;;;;;;8.80;5.40;;;;;;;15.67;66.40;101632.66;5013193;28;103266;-84
2021/10/21 02:15:48;;;;;;;5.97;5.38;;;;;;;15.67;66.51;101638.16;5008648;28;102716;-85
2021/10/21 02:18:15;;;;;;;6.72;5.53;;;;;;;15.68;66.35;101642.53;5014209;28;102399;-84
2021/10/21 02:20:41;;;;;;;6.15;5.63;;;;;;;15.68;66.50;101637.84;5005356;28;102574;-84
2021/10/21 02:23:08;;;;;;;7.00;5.40;;;;;;;15.67;66.25;101635.41;5015464;28;102153;-84
2021/10/21 02:25:35;;;;;;;6.63;5.45;;;;;;;15.67;66.52;101629.91;5001596;28;104036;-84
2021/10/21 02:28:01;;;;;;;5.95;5.35;;;;;;;15.67;66.52;101629.91;5012179;28;102569;-84
2021/10/21 02:30:29;;;;;;;5.70;5.10;;;;;;;15.68;66.28;101626.06;5002074;28;102270;-84
2021/10/21 02:32:56;;;;;;;6.25;5.13;;;;;;;15.68;66.46;101626.06;5006326;28;102518;-84
2021/10/21 02:35:23;;;;;;;6.03;5.18;;;;;;;15.67;66.54;101613.44;5000917;28;104031;-84
2021/10/21 02:37:50;;;;;;;6.05;5.15;;;;;;;15.67;66.46;101619.75;5016535;28;103139;-86
2021/10/21 02:40:17;;;;;;;6.10;5.50;;;;;;;15.68;66.37;101617.81;5016155;28;102553;-86
2021/10/21 02:42:43;;;;;;;6.60;5.97;;;;;;;15.67;66.33;101619.75;5007976;28;102335;-84
2021/10/21 02:45:10;;;;;;;5.72;4.95;;;;;;;15.67;66.63;101618.94;5010061;28;103228;-85
2021/10/21 02:47:38;;;;;;;6.28;5.43;;;;;;;15.68;66.54;101629.63;5014020;28;102287;-85
2021/10/21 02:50:05;;;;;;;6.28;5.43;;;;;;;15.68;66.54;101626.06;5006272;28;102581;-86
2021/10/21 02:52:32;;;;;;;5.63;5.05;;;;;;;15.67;66.19;101629.91;5010318;28;102532;-86
2021/10/21 02:54:58;;;;;;;5.55;5.05;;;;;;;15.68;66.21;101626.88;5010237;28;103236;-86
2021/10/21 02:57:25;;;;;;;6.53;4.82;;;;;;;15.67;66.30;101624.44;5012371;28;102492;-85
2021/10/21 02:59:51;;;;;;;6.43;5.75;;;;;;;15.67;66.32;101619.75;5013992;28;102444;-84
2021/10/21 03:02:18;;;;;;;5.80;5.30;;;;;;;15.67;66.36;101614.25;5011187;28;102287;-85
2021/10/21 03:04:46;;;;;;;5.43;4.93;;;;;;;15.68;66.67;101620.56;5012513;28;104128;-84
2021/10/21 03:07:12;;;;;;;5.32;4.53;;;;;;;15.68;66.74;101617.81;5014248;28;102346;-84
2021/10/21 03:09:39;;;;;;;6.60;5.50;;;;;;;15.68;66.10;101609.59;5014506;28;102672;-85
2021/10/21 03:12:06;;;;;;;6.18;5.55;;;;;;;15.67;66.57;101608.78;5014523;28;102572;-85
2021/10/21 03:14:33;;;;;;;5.80;5.20;;;;;;;15.67;66.56;101597.00;5013019;28;104737;-85
2021/10/21 03:17:00;;;;;;;6.40;4.78;;;;;;;15.67;66.33;101597.00;5015560;28;102385;-85
2021/10/21 03:19:26;;;;;;;5.25;4.75;;;;;;;15.67;66.33;101591.50;5011354;28;102824;-84
2021/10/21 03:21:54;;;;;;;5.68;5.05;;;;;;;15.67;66.63;101594.25;5006828;28;102528;-85
2021/10/21 03:24:21;;;;;;;7.38;4.85;;;;;;;15.67;66.16;101586.81;5007457;28;103313;-84
2021/10/21 03:26:48;;;;;;;6.93;5.45;;;;;;;15.68;66.76;101582.16;5010305;28;105995;-84
2021/10/21 03:29:14;;;;;;;6.75;4.90;;;;;;;15.67;66.39;101580.53;5010638;27;102333;-84
2021/10/21 03:31:41;;;;;;;5.95;4.70;;;;;;;15.67;66.44;101583.28;5015861;28;102146;-84
2021/10/21 03:34:08;;;;;;;8.00;5.28;;;;;;;15.67;66.21;101570.38;5010077;28;103954;-85
2021/10/21 03:36:34;;;;;;;6.10;5.50;;;;;;;15.67;66.34;101572.28;5009006;28;102384;-84
2021/10/21 03:39:04;;;;;;;5.68;4.97;;;;;;;15.67;66.40;101581.34;5005945;28;102648;-84
2021/10/21 03:41:32;;;;;;;8.05;5.15;;;;;;;15.68;66.41;101576.66;5004291;28;102267;-84
2021/10/21 03:43:58;;;;;;;7.15;5.20;;;;;;;15.67;66.52;101575.84;5005897;28;104022;-84
2021/10/21 03:46:25;;;;;;;8.07;5.35;;;;;;;15.68;66.37;101571.19;5003472;28;102165;-84
2021/10/21 03:48:52;;;;;;;6.40;4.97;;;;;;;15.68;66.33;101565.69;5003497;28;102561;-85
2021/10/21 03:51:18;;;;;;;6.65;4.53;;;;;;;15.68;66.35;101560.19;5013082;28;102772;-85
2021/10/21 03:53:45;;;;;;;5.35;4.70;;;;;;;15.68;66.46;101557.47;5004895;28;103991;-84
2021/10/21 03:56:13;;;;;;;8.25;5.43;;;;;;;15.68;66.75;101554.72;5013039;28;102543;-84
2021/10/21 03:58:40;;;;;;;10.27;4.72;;;;;;;15.67;66.68;101544.84;4999552;28;102842;-84
2021/10/21 04:01:06;;;;;;;6.07;4.95;;;;;;;15.67;66.51;101537.44;5016079;28;102265;-85
2021/10/21 04:03:33;;;;;;;5.95;4.40;;;;;;;15.68;66.66;101543.75;5015317;28;103921;-84
2021/10/21 04:05:59;;;;;;;7.90;5.35;;;;;;;15.67;66.32;101536.63;5012886;28;102618;-85
2021/10/21 04:08:26;;;;;;;7.18;5.20;;;;;;;15.67;66.52;101531.13;5013114;28;102162;-84
2021/10/21 04:10:52;;;;;;;7.43;4.70;;;;;;;15.68;66.43;101538.25;5006136;28;102618;-85
2021/10/21 04:13:21;;;;;;;11.63;4.60;;;;;;;15.67;66.46;101536.63;5003419;28;102708;-84
2021/10/21 04:15:48;;;;;;;11.68;5.00;;;;;;;15.67;66.28;101531.13;5009647;28;102222;-84
2021/10/21 04:18:15;;;;;;;8.60;5.30;;;;;;;15.67;66.51;101536.63;5005281;28;102486;-85
2021/10/21 04:20:42;;;;;;;7.22;4.90;;;;;;;15.67;66.67;101542.09;5013879;28;102181;-85
2021/10/21 04:23:08;;;;;;;6.68;5.10;;;;;;;15.67;66.78;101536.63;5008984;28;103279;-86
2021/10/21 04:25:35;;;;;;;10.88;5.63;;;;;;;15.68;66.49;101538.25;5011373;28;102322;-85
2021/10/21 04:28:02;;;;;;;5.75;4.85;;;;;;;15.68;66.34;101538.25;5010207;28;102206;-85
2021/10/21 04:30:29;;;;;;;311.65;26.55;;;;;;;15.68;66.67;101543.75;5007480;28;102382;-85
2021/10/21 04:32:59;;;;;;;132.43;15.60;;;;;;;15.68;66.50;101535.50;5007594;28;103915;-82
2021/10/21 04:35:26;;;;;;;240.40;26.58;;;;;;;15.68;66.29;101538.25;5011960;28;102485;-83
2021/10/21 04:37:52;;;;;;;29.58;6.60;;;;;;;15.68;66.51;101538.25;5014513;28;102681;-81
2021/10/21 04:40:19;;;;;;;51.35;8.85;;;;;;;15.69;66.49;101542.66;5015148;28;102742;-84
2021/10/21 04:42:45;;;;;;;18.73;5.70;;;;;;;15.67;66.74;101537.44;5011331;28;102843;-85
2021/10/21 04:45:12;;;;;;;7.53;4.60;;;;;;;15.68;66.71;101541.00;5008485;28;102419;-83
2021/10/21 04:47:40;;;;;;;9.02;4.30;;;;;;;15.68;66.51;101541.00;5004336;28;104038;-84
2021/10/21 04:50:07;;;;;;;7.88;4.47;;;;;;;15.69;66.64;101548.16;5011204;27;102325;-84
2021/10/21 04:52:37;;;;;;;7.95;5.28;;;;;;;15.68;66.48;101550.03;5011653;28;102810;-83
2021/10/21 04:55:06;;;;;;;7.30;4.27;;;;;;;15.68;66.69;101543.75;5011777;28;102177;-83
2021/10/21 04:57:33;;;;;;;7.07;4.85;;;;;;;15.68;66.50;101543.75;5009553;28;102715;-84
2021/10/21 04:59:59;;;;;;;11.90;4.93;;;;;;;15.68;66.89;101544.56;5012754;28;102651;-85
2021/10/21 05:02:25;;;;;;;8.20;4.63;;;;;;;15.69;66.73;101537.16;5005487;28;103942;-84
2021/10/21 05:04:53;;;;;;;11.15;5.30;;;;;;;15.69;66.39;101545.41;5007291;28;102549;-84
2021/10/21 05:07:20;;;;;;;8.00;4.38;;;;;;;15.69;66.62;101537.16;4999960;28;102141;-85
2021/10/21 05:09:46;;;;;;;8.48;5.20;;;;;;;15.70;66.93;101536.06;5005195;28;102657;-86
2021/10/21 05:12:13;;;;;;;9.75;4.60;;;;;;;15.68;67.00;101533.56;5002353;28;103418;-82
2021/10/21 05:14:39;;;;;;;9.07;4.80;;;;;;;15.70;66.79;101541.53;5008318;28;102277;-83
2021/10/21 05:17:05;;;;;;;8.75;4.50;;;;;;;15.70;66.93;101530.56;5000736;28;102460;-84
2021/10/21 05:19:32;;;;;;;8.52;5.10;;;;;;;15.70;66.55;101536.06;5003288;28;102207;-83
2021/10/21 05:22:00;;;;;;;6.70;4.35;;;;;;;15.70;66.55;101538.78;4982936;28;103819;-83
2021/10/21 05:24:26;;;;;;;7.87;4.40;;;;;;;15.70;66.58;101536.88;4992359;28;102428;-83
2021/10/21 05:26:53;;;;;;;7.75;4.50;;;;;;;15.71;66.73;101538.50;4985258;28;102286;-83
2021/10/21 05:29:20;;;;;;;11.32;5.18;;;;;;;15.72;66.95;101539.31;4997275;28;102780;-88
2021/10/21 05:31:46;;;;;;;9.23;5.22;;;;;;;15.72;66.58;101526.41;5006700;28;104050;-88
2021/10/21 05:34:13;;;;;;;7.50;4.13;;;;;;;15.70;66.67;101519.59;5007608;28;102534;-88
2021/10/21 05:36:39;;;;;;;18.38;4.82;;;;;;;15.71;66.74;101507.50;5009812;28;102840;-88
2021/10/21 05:39:08;;;;;;;6.20;4.10;;;;;;;15.71;67.07;101502.81;5015054;28;104534;-87
2021/10/21 05:41:34;;;;;;;95.65;11.23;;;;;;;15.73;66.96;101513.53;5015198;28;102738;-85
2021/10/21 05:44:01;;;;;;;9.27;4.55;;;;;;;15.72;66.66;101500.91;5017295;28;102453;-89
2021/10/21 05:46:27;;;;;;;6.35;3.85;;;;;;;15.72;66.87;101496.22;5014314;28;102353;-85
2021/10/21 05:48:54;;;;;;;9.23;4.78;;;;;;;15.73;66.79;101494.31;5015140;28;102552;-86
2021/10/21 05:51:20;;;;;;;7.85;4.78;;;;;;;15.73;66.68;101499.81;5011349;28;104287;-84
2021/10/21 05:53:49;;;;;;;7.68;4.28;;;;;;;15.74;66.95;101499.50;5014981;28;104349;-83
2021/10/21 05:56:16;;;;;;;6.20;4.17;;;;;;;15.73;66.70;101497.88;5010167;28;102559;-84
2021/10/21 05:58:43;;;;;;;7.55;4.30;;;;;;;15.73;66.52;101497.06;5013676;28;102340;-84
2021/10/21 06:01:09;;;;;;;6.05;3.78;;;;;;;15.73;66.78;101502.56;5013306;28;103152;-85
2021/10/21 06:03:37;;;;;;;6.55;4.45;;;;;;;15.73;66.69;101503.38;5032417;27;102266;-85
2021/10/21 06:06:04;;;;;;;8.45;4.35;;;;;;;15.74;66.70;101509.69;5018052;28;102480;-87
2021/10/21 06:08:31;;;;;;;5.45;3.80;;;;;;;15.72;66.78;101515.44;5014172;28;102620;-85
2021/10/21 06:11:01;;;;;;;5.55;4.00;;;;;;;15.74;66.99;101515.16;5016706;28;102765;-84
2021/10/21 06:13:28;;;;;;;5.78;4.35;;;;;;;15.73;67.09;101508.84;5012927;28;102213;-84
2021/10/21 06:15:55;;;;;;;6.40;4.10;;;;;;;15.75;66.67;101525.03;5014899;28;102626;-84
2021/10/21 06:18:21;;;;;;;4.90;3.63;;;;;;;15.74;66.84;101506.94;5017965;27;102211;-84
2021/10/21 06:20:48;;;;;;;8.38;4.30;;;;;;;15.74;66.80;101509.69;5019057;28;102704;-84
2021/10/21 06:23:14;;;;;;;5.75;4.25;;;;;;;15.74;66.84;101502.25;5017623;28;102547;-86
2021/10/21 06:25:41;;;;;;;8.63;4.45;;;;;;;15.73;66.83;101497.88;5019494;28;102232;-86
2021/10/21 06:28:07;;;;;;;6.60;3.83;;;;;;;15.73;66.69;101491.56;5020354;28;102146;-86
2021/10/21 06:30:36;;;;;;;4.70;3.92;;;;;;;15.73;66.56;101497.88;5013585;28;103920;-86
2021/10/21 06:33:03;;;;;;;5.97;4.25;;;;;;;15.75;66.78;101503.06;5023145;28;102017;-86
2021/10/21 06:35:30;;;;;;;6.75;3.80;;;;;;;15.75;66.85;101505.81;5016879;28;103815;-86
2021/10/21 06:37:56;;;;;;;7.05;4.05;;;;;;;15.74;66.62;101487.72;5018268;28;102458;-86
2021/10/21 06:40:24;;;;;;;6.22;4.03;;;;;;;15.76;66.74;101490.97;5014204;28;102992;-87
2021/10/21 06:42:51;;;;;;;5.70;3.58;;;;;;;15.75;67.00;101497.59;5016557;28;102586;-86
2021/10/21 06:45:18;;;;;;;5.70;4.20;;;;;;;15.76;66.76;101485.50;5017565;28;102675;-84
2021/10/21 06:47:46;;;;;;;7.70;3.97;;;;;;;15.76;67.07;101497.31;5020385;28;102272;-84
2021/10/21 06:50:13;;;;;;;7.18;4.13;;;;;;;15.77;66.75;101487.16;5011101;28;102646;-84
2021/10/21 06:52:44;;;;;;;5.60;4.15;;;;;;;15.76;67.18;101489.09;5017216;28;102518;-84
2021/10/21 06:55:13;;;;;;;5.80;4.32;;;;;;;15.77;66.64;101481.66;5016764;28;102641;-84
2021/10/21 06:57:48;;;;;;;4.88;3.55;;;;;;;15.77;66.98;101478.91;5033883;27;102444;-85
2021/10/21 07:00:15;;;;;;;5.32;3.85;;;;;;;15.77;67.04;101477.00;5011668;28;104338;-81
2021/10/21 07:02:42;;;;;;;5.72;3.65;;;;;;;15.78;67.02;101472.31;5014720;28;102434;-81
2021/10/21 07:05:12;;;;;;;7.50;4.10;;;;;;;15.78;67.16;101469.56;5010570;28;107325;-81
2021/10/21 07:07:39;;;;;;;5.63;3.63;;;;;;;15.78;67.02;101464.06;5010505;28;102441;-82
2021/10/21 07:10:08;;;;;;;7.13;3.80;;;;;;;15.78;66.75;101464.06;5005157;27;102679;-81
2021/10/21 07:12:36;;;;;;;5.32;3.75;;;;;;;15.79;66.79;101462.97;5034317;28;101944;-82
2021/10/21 07:15:04;;;;;;;6.00;3.78;;;;;;;15.79;66.92;101463.78;5014244;28;102256;-81
2021/10/21 07:17:30;;;;;;;4.10;3.70;;;;;;;15.81;66.64;101460.75;5015646;28;102346;-81
2021/10/21 07:19:57;;;;;;;5.03;3.50;;;;;;;15.80;66.83;101459.13;5013955;28;102933;-81
2021/10/21 07:22:25;;;;;;;4.32;3.30;;;;;;;15.80;66.78;101454.47;5016537;28;102386;-84
2021/10/21 07:24:52;;;;;;;5.90;4.13;;;;;;;15.80;66.65;101461.88;5013020;27;102373;-81
2021/10/21 07:27:19;;;;;;;4.55;3.30;;;;;;;15.82;67.07;101462.38;5015577;28;102624;-81
2021/10/21 07:29:47;;;;;;;6.07;3.42;;;;;;;15.83;67.11;101458.53;5014157;28;102998;-80
2021/10/21 07:32:13;;;;;;;5.40;3.50;;;;;;;15.83;66.83;101464.03;5014740;28;102367;-81
2021/10/21 07:34:42;;;;;;;;;;;;;;;15.83;67.09;101464.03;5011613;28;102722;-80
2021/10/21 07:37:10;;;;;;;6.40;3.10;;;;;;;15.84;66.82;101471.16;5013816;28;102626;-86
2021/10/21 07:39:40;;;;;;;3.80;3.13;;;;;;;15.84;66.60;101457.44;5029488;27;102247;-86
2021/10/21 07:42:08;;;;;;;5.75;3.67;;;;;;;15.85;66.78;101459.06;5014496;28;102185;-85
2021/10/21 07:44:35;;;;;;;6.63;3.70;;;;;;;15.84;67.10;101461.00;5018345;28;102544;-86
2021/10/21 07:47:03;;;;;;;5.25;3.58;;;;;;;15.85;66.93;101467.31;5015652;28;102102;-85
2021/10/21 07:49:31;;;;;;;4.07;2.90;;;;;;;15.85;66.86;101461.81;5018504;28;102790;-86
2021/10/21 07:51:58;;;;;;;5.35;3.42;;;;;;;15.85;67.11;101456.31;5009083;28;102665;-86
2021/10/21 07:54:27;;;;;;;4.90;3.75;;;;;;;15.87;66.56;101462.38;5007701;28;102552;-85
2021/10/21 07:56:55;;;;;;;4.43;3.22;;;;;;;15.87;66.94;101454.13;5018653;28;102222;-85
2021/10/21 07:59:23;;;;;;;4.43;3.07;;;;;;;15.87;66.83;101448.63;5017980;28;102896;-85
2021/10/21 08:01:49;;;;;;;6.10;3.30;;;;;;;15.88;66.53;101442.03;5012760;28;102677;-86
2021/10/21 08:04:16;;;;;;;5.00;3.55;;;;;;;15.88;66.93;101444.78;5012769;28;102468;-87
2021/10/21 08:06:44;;;;;;;5.15;3.22;;;;;;;15.87;66.68;101443.16;5014235;28;102875;-86
2021/10/21 08:09:10;;;;;;;4.65;3.47;;;;;;;15.88;66.81;101441.22;5010968;28;103203;-85
2021/10/21 08:11:39;;;;;;;6.43;3.45;;;;;;;15.89;66.90;101434.63;5015102;28;101962;-86
2021/10/21 08:14:07;;;;;;;5.72;3.63;;;;;;;15.89;66.99;101434.63;5013031;28;102592;-84
2021/10/21 08:16:34;;;;;;;6.55;3.60;;;;;;;15.90;66.65;101420.59;5014724;28;102125;-86
2021/10/21 08:19:02;;;;;;;5.53;3.20;;;;;;;15.90;66.87;101423.31;5010185;28;102862;-87
2021/10/21 08:21:30;;;;;;;4.85;3.80;;;;;;;15.90;66.88;101426.06;5014436;28;102524;-85
2021/10/21 08:23:57;;;;;;;6.40;3.55;;;;;;;15.90;66.53;101423.31;5015269;28;102157;-86
2021/10/21 08:26:24;;;;;;;9.13;3.53;;;;;;;15.91;66.67;101425.00;5020615;28;102394;-86
2021/10/21 08:28:51;;;;;;;6.45;3.30;;;;;;;15.91;66.42;101418.69;5029094;27;102760;-86
2021/10/21 08:31:20;;;;;;;5.85;3.20;;;;;;;15.92;66.93;101415.63;5011876;28;102170;-86
2021/10/21 08:33:47;;;;;;;6.57;3.38;;;;;;;15.92;66.53;101418.38;5013218;28;102439;-86
2021/10/21 08:36:15;;;;;;;6.30;3.65;;;;;;;15.92;66.88;101418.38;5015800;28;102656;-85
2021/10/21 08:38:42;;;;;;;6.78;3.33;;;;;;;15.93;66.85;101414.53;5013627;28;102780;-86
2021/10/21 08:41:10;;;;;;;5.60;3.17;;;;;;;15.93;66.74;101405.47;5022025;28;102806;-86
2021/10/21 08:43:36;;;;;;;6.72;3.58;;;;;;;15.93;66.63;101414.53;5017319;28;102956;-86
2021/10/21 08:46:03;;;;;;;6.63;3.33;;;;;;;15.94;66.54;101401.59;5020279;28;102153;-86
2021/10/21 08:48:35;;;;;;;5.55;3.15;;;;;;;15.94;66.42;101399.72;5011133;28;104271;-86
2021/10/21 08:51:05;;;;;;;4.93;3.40;;;;;;;15.94;66.48;101396.97;5012146;28;102350;-85
2021/10/21 08:53:32;;;;;;;7.43;3.80;;;;;;;15.96;66.75;101396.66;5010700;28;102148;-85
2021/10/21 08:55:59;;;;;;;7.22;3.10;;;;;;;15.95;66.19;101395.84;5008934;28;102630;-87
2021/10/21 08:58:27;;;;;;;5.47;3.13;;;;;;;15.97;66.74;101390.06;5015911;28;102675;-86
2021/10/21 09:01:02;;;;;;;3.85;2.85;;;;;;;15.96;66.66;101386.50;5023815;28;102392;-86
2021/10/21 09:03:54;;;;;;;10.77;3.58;;;;;;;15.96;66.38;101381.00;5021004;28;102058;-87
2021/10/21 09:06:31;;;;;;;5.72;3.15;;;;;;;15.97;66.43;101379.88;5027445;27;102043;-87
2021/10/21 09:08:58;;;;;;;6.70;3.53;;;;;;;15.97;66.63;101376.31;5017251;28;103976;-86
2021/10/21 09:11:25;;;;;;;8.25;3.58;;;;;;;15.98;66.29;101375.22;4998901;28;102059;-87
2021/10/21 09:14:08;;;;;;;5.57;3.40;;;;;;;15.98;66.43;101364.25;5011295;28;102740;-87
2021/10/21 09:16:35;;;;;;;6.07;3.08;;;;;;;15.98;66.16;101367.81;4988986;28;102256;-86
2021/10/21 09:19:07;;;;;;;6.65;3.20;;;;;;;15.98;66.39;101356.03;5002183;28;102826;-85
2021/10/21 09:21:35;;;;;;;6.00;3.42;;;;;;;15.99;66.48;101361.22;4996786;28;104785;-85
2021/10/21 09:24:24;;;;;;;6.17;3.33;;;;;;;16.00;66.49;101353.78;4992350;28;102362;-86
2021/10/21 09:27:05;;;;;;;6.90;3.65;;;;;;;15.99;66.65;101369.44;5006463;28;102709;-80
2021/10/21 09:29:34;;;;;;;6.30;3.45;;;;;;;15.99;66.17;101344.72;5015232;28;103734;-80
2021/10/21 09:32:07;;;;;;;6.78;3.25;;;;;;;16.01;66.68;101349.91;5015631;28;102206;-79
2021/10/21 09:34:43;;;;;;;8.13;4.10;;;;;;;16.00;66.66;101349.09;5009360;28;102143;-80
2021/10/21 09:37:12;;;;;;;8.85;3.65;;;;;;;16.00;66.54;101346.38;5016598;28;102190;-79
2021/10/21 09:39:43;;;;;;;13.10;4.60;;;;;;;16.00;66.49;101343.63;5024542;28;103214;-80
2021/10/21 09:42:10;;;;;;;14.50;4.93;;;;;;;16.00;66.50;101343.63;5017232;27;102452;-80
2021/10/21 09:44:36;;;;;;;10.82;5.10;;;;;;;16.01;66.26;101337.03;5017616;28;102375;-80
2021/10/21 09:47:20;;;;;;;13.52;4.18;;;;;;;16.01;66.25;101334.28;5018521;28;102247;-80
2021/10/21 09:49:54;;;;;;;13.93;4.35;;;;;;;16.01;66.48;101326.06;5015043;28;106945;-79
2021/10/21 09:52:23;;;;;;;10.35;4.75;;;;;;;16.01;66.25;101328.81;5017277;28;102472;-80
2021/10/21 09:54:50;;;;;;;13.25;4.18;;;;;;;16.02;66.57;101324.13;5022101;28;102278;-82
2021/10/21 09:57:18;;;;;;;9.60;4.13;;;;;;;16.01;66.38;101323.31;5017227;28;102695;-78
2021/10/21 09:59:59;;;;;;;14.02;4.00;;;;;;;16.01;66.32;101312.31;5014504;28;102808;-79
2021/10/21 10:02:30;;;;;;;6.40;4.13;;;;;;;16.02;66.11;101313.94;5016545;28;102633;-79
2021/10/21 10:05:01;;;;;;;7.75;4.03;;;;;;;16.02;66.00;101319.44;5017859;28;102546;-79
2021/10/21 10:07:29;;;;;;;8.38;4.05;;;;;;;16.02;66.07;101297.47;5009935;28;102219;-79
2021/10/21 10:09:59;;;;;;;5.97;3.85;;;;;;;16.02;66.41;101302.97;5007616;28;102704;-79
2021/10/21 10:12:30;;;;;;;12.07;4.13;;;;;;;16.02;66.59;101286.50;5009352;28;102179;-83
2021/10/21 10:14:57;;;;;;;5.90;3.42;;;;;;;16.03;65.90;101276.34;5017124;28;102534;-80
2021/10/21 10:17:26;;;;;;;6.28;3.33;;;;;;;16.01;66.39;101282.13;5020234;28;102177;-79
2021/10/21 10:19:54;;;;;;;6.72;3.47;;;;;;;16.01;66.05;101279.38;5015443;28;103619;-78
2021/10/21 10:22:27;;;;;;;7.90;4.05;;;;;;;16.02;65.87;101283.75;5014363;28;102187;-79
2021/10/21 10:24:55;;;;;;;10.65;3.85;;;;;;;16.01;65.96;101279.38;5012246;28;102447;-79
2021/10/21 10:27:25;;;;;;;8.18;3.50;;;;;;;16.01;66.24;101276.63;5024260;28;102560;-79
2021/10/21 10:29:53;;;;;;;7.55;3.80;;;;;;;16.01;65.86;101270.31;5018143;28;104303;-79
2021/10/21 10:32:38;;;;;;;8.07;3.67;;;;;;;16.00;66.32;101272.25;5017479;28;102300;-78
2021/10/21 10:35:07;;;;;;;8.50;3.35;;;;;;;16.02;65.86;101270.03;5015025;28;102845;-79
2021/10/21 10:37:41;;;;;;;7.32;3.85;;;;;;;16.01;66.42;101262.06;5017827;28;102771;-80
2021/10/21 10:40:08;;;;;;;9.70;3.40;;;;;;;16.00;66.36;101255.75;5010609;28;102658;-79
2021/10/21 10:43:03;;;;;;;6.03;3.65;;;;;;;16.00;65.71;101258.50;5009976;28;102433;-79
2021/10/21 10:45:41;;;;;;;6.90;3.28;;;;;;;16.00;66.11;101258.50;5005158;27;102495;-79
2021/10/21 10:48:08;;;;;;;6.45;3.63;;;;;;;16.00;66.08;101249.47;5015424;27;103559;-80
2021/10/21 10:50:55;;;;;;;6.45;3.60;;;;;;;16.00;66.18;101249.47;5010392;28;102593;-81
2021/10/21 10:53:57;;;;;;;7.38;3.47;;;;;;;15.99;65.90;101243.16;5011164;28;102633;-79
2021/10/21 10:56:43;;;;;;;4.15;3.28;;;;;;;16.00;66.01;101239.28;4975567;28;102791;-79
2021/10/21 10:59:27;;;;;;;10.07;3.70;;;;;;;15.99;66.06;101234.13;4963176;28;102623;-80
2021/10/21 11:01:54;;;;;;;6.43;3.10;;;;;;;16.00;66.21;101235.75;5003605;28;102338;-81
2021/10/21 11:05:04;;;;;;;5.35;3.05;;;;;;;16.00;65.93;101222.00;5019352;28;102537;-83
2021/10/21 11:07:49;;;;;;;5.03;3.38;;;;;;;16.00;65.96;101224.75;4942852;28;102601;-83
2021/10/21 11:10:36;;;;;;;5.82;3.20;;;;;;;16.00;65.88;101222.00;5015892;28;102593;-83
2021/10/21 11:13:19;;;;;;;6.40;3.95;;;;;;;15.99;66.29;101210.22;5007127;28;102101;-83
2021/10/21 11:15:47;;;;;;;7.07;3.55;;;;;;;16.00;66.08;101200.84;4997620;28;102226;-83
2021/10/21 11:18:22;;;;;;;57.45;10.45;;;;;;;16.01;66.12;101190.69;5002698;28;103303;-83
2021/10/21 11:20:49;;;;;;;22.42;4.88;;;;;;;15.98;65.66;101181.13;5006141;28;102103;-84
2021/10/21 11:23:38;;;;;;;13.40;3.90;;;;;;;15.99;66.17;101182.75;5017322;28;103609;-84